createdAt,value
2022-12-11T00:01:39.171Z,7.50
2022-12-11T00:04:07.625Z,7.25
2022-12-11T00:06:36.207Z,7.25
2022-12-11T00:09:03.985Z,10.00
2022-12-11T00:11:32.489Z,8.00
2022-12-11T00:14:01.315Z,3.00
2022-12-11T00:16:29.786Z,7.75
2022-12-11T00:18:57.536Z,6.00
2022-12-11T00:21:25.295Z,3.00
2022-12-11T00:23:54.050Z,4.00
2022-12-11T00:26:22.935Z,5.00
2022-12-11T00:28:57.393Z,3.50
2022-12-11T00:31:25.652Z,3.00
2022-12-11T00:33:54.221Z,3.25
2022-12-11T00:36:26.330Z,6.50
2022-12-11T00:38:55.608Z,6.00
2022-12-11T00:41:24.398Z,5.25
2022-12-11T00:43:52.419Z,1.00
2022-12-11T00:46:20.204Z,3.00
2022-12-11T00:48:50.002Z,4.00
2022-12-11T00:51:18.846Z,4.50
2022-12-11T00:53:47.728Z,3.00
2022-12-11T00:56:23.224Z,7.25
2022-12-11T00:58:51.939Z,9.00
2022-12-11T01:01:24.741Z,11.60
2022-12-11T01:03:53.825Z,7.00
2022-12-11T01:06:27.238Z,8.00
2022-12-11T01:09:15.311Z,6.75
2022-12-11T01:11:44.199Z,8.00
2022-12-11T01:14:13.339Z,2.00
2022-12-11T01:16:41.067Z,7.00
2022-12-11T01:19:09.759Z,12.00
2022-12-11T01:21:37.423Z,10.50
2022-12-11T01:24:05.797Z,12.00
2022-12-11T01:26:35.612Z,12.60
2022-12-11T01:29:03.684Z,13.50
2022-12-11T01:31:31.443Z,14.00
2022-12-11T01:33:59.914Z,16.00
2022-12-11T01:36:27.604Z,9.00
2022-12-11T01:38:58.741Z,10.43
2022-12-11T01:41:26.720Z,14.00
2022-12-11T01:44:15.500Z,8.75
2022-12-11T01:46:45.019Z,14.00
2022-12-11T01:49:15.878Z,16.00
2022-12-11T01:51:58.360Z,13.00
2022-12-11T01:54:28.872Z,18.00
2022-12-11T01:57:06.217Z,25.50
2022-12-11T01:59:39.434Z,21.00
2022-12-11T02:02:30.455Z,17.67
2022-12-11T02:04:59.154Z,23.33
2022-12-11T02:07:26.966Z,20.00
2022-12-11T02:09:55.626Z,19.67
2022-12-11T02:12:39.750Z,13.00
2022-12-11T02:15:16.274Z,17.50
2022-12-11T02:18:03.003Z,8.25
2022-12-11T02:21:14.642Z,16.00
2022-12-11T02:24:33.760Z,16.00
2022-12-11T02:27:30.975Z,15.33
2022-12-11T02:30:12.151Z,37.33
2022-12-11T02:32:57.096Z,50.50
2022-12-11T02:35:42.137Z,37.00
2022-12-11T02:38:35.428Z,48.33
2022-12-11T02:41:05.574Z,25.50
2022-12-11T02:43:34.302Z,24.50
2022-12-11T02:46:06.450Z,9.50
2022-12-11T02:48:37.188Z,14.00
2022-12-11T02:51:07.969Z,18.00
2022-12-11T02:53:40.813Z,20.00
2022-12-11T02:56:34.468Z,19.33
2022-12-11T02:59:17.337Z,17.33
2022-12-11T03:01:47.678Z,17.67
2022-12-11T03:04:17.597Z,14.00
2022-12-11T03:06:55.000Z,10.43
2022-12-11T03:09:22.837Z,15.00
2022-12-11T03:11:52.396Z,16.00
2022-12-11T03:14:20.537Z,17.00
2022-12-11T03:17:14.464Z,9.00
2022-12-11T03:20:21.414Z,13.50
2022-12-11T03:23:36.149Z,13.00
2022-12-11T03:26:12.011Z,19.33
2022-12-11T03:29:03.551Z,15.40
2022-12-11T03:32:01.483Z,13.20
2022-12-11T03:35:19.364Z,12.60
2022-12-11T03:37:50.645Z,13.00
2022-12-11T03:40:21.775Z,12.00
2022-12-11T03:42:52.903Z,15.00
2022-12-11T03:45:23.581Z,13.00
2022-12-11T03:47:56.987Z,15.00
2022-12-11T03:50:30.911Z,12.00
2022-12-11T03:53:01.751Z,15.67
2022-12-11T03:55:34.782Z,16.67
2022-12-11T03:58:02.490Z,12.50
2022-12-11T04:00:33.119Z,9.83
2022-12-11T04:03:14.279Z,13.67
2022-12-11T04:05:53.799Z,9.25
2022-12-11T04:08:25.014Z,12.40
2022-12-11T04:11:11.635Z,11.50
2022-12-11T04:13:41.211Z,14.00
2022-12-11T04:16:09.769Z,12.00
2022-12-11T04:18:55.985Z,12.00
2022-12-11T04:21:44.067Z,12.00
2022-12-11T04:24:17.675Z,18.00
2022-12-11T04:26:48.055Z,19.00
2022-12-11T04:29:15.946Z,10.00
2022-12-11T04:31:43.652Z,11.50
2022-12-11T04:34:11.522Z,16.00
2022-12-11T04:36:39.998Z,11.67
2022-12-11T04:39:11.237Z,15.71
2022-12-11T04:41:39.192Z,20.00
2022-12-11T04:44:08.441Z,15.33
2022-12-11T04:46:36.630Z,14.00
2022-12-11T04:49:05.207Z,17.00
2022-12-11T04:51:32.930Z,16.00
2022-12-11T04:54:00.708Z,12.00
2022-12-11T04:56:28.378Z,11.50
2022-12-11T04:58:56.064Z,13.00
2022-12-11T05:01:24.269Z,14.50
2022-12-11T05:03:52.106Z,8.00
2022-12-11T05:06:20.564Z,7.00
2022-12-11T05:08:48.348Z,10.50
2022-12-11T05:11:17.697Z,15.00
2022-12-11T05:13:46.043Z,12.50
2022-12-11T05:16:17.215Z,14.00
2022-12-11T05:18:48.435Z,13.86
2022-12-11T05:21:16.909Z,15.00
2022-12-11T05:23:45.028Z,12.00
2022-12-11T05:26:20.023Z,14.50
2022-12-11T05:28:54.319Z,14.00
2022-12-11T05:31:26.746Z,14.00
2022-12-11T05:33:55.358Z,13.00
2022-12-11T05:36:33.812Z,15.67
2022-12-11T05:39:05.091Z,9.00
2022-12-11T05:41:33.463Z,9.00
2022-12-11T05:44:01.540Z,11.00
2022-12-11T05:46:31.485Z,10.00
2022-12-11T05:49:02.062Z,7.75
2022-12-11T05:51:36.173Z,7.00
2022-12-11T05:54:05.244Z,10.00
2022-12-11T05:56:35.321Z,12.00
2022-12-11T05:59:06.419Z,3.00
2022-12-11T06:01:43.621Z,5.25
2022-12-11T06:04:13.431Z,8.00
2022-12-11T06:06:46.741Z,4.25
2022-12-11T06:09:16.636Z,8.50
2022-12-11T06:11:44.465Z,10.00
2022-12-11T06:14:14.035Z,11.00
2022-12-11T06:16:42.639Z,7.00
2022-12-11T06:19:18.389Z,9.00
2022-12-11T06:21:49.074Z,11.67
2022-12-11T06:24:16.762Z,15.00
2022-12-11T06:26:46.326Z,11.20
2022-12-11T06:29:14.870Z,15.00
2022-12-11T06:31:43.419Z,18.33
2022-12-11T06:34:14.322Z,11.00
2022-12-11T06:36:42.890Z,19.33
2022-12-11T06:39:10.585Z,15.00
2022-12-11T06:41:38.400Z,11.00
2022-12-11T06:44:06.143Z,12.00
2022-12-11T06:46:33.829Z,13.00
2022-12-11T06:49:01.589Z,14.00
2022-12-11T06:51:30.106Z,16.33
2022-12-11T06:53:59.605Z,11.80
2022-12-11T06:56:28.095Z,8.00
2022-12-11T06:58:57.243Z,10.00
2022-12-11T07:01:28.318Z,13.00
2022-12-11T07:04:00.263Z,15.00
2022-12-11T07:06:29.783Z,16.33
2022-12-11T07:08:57.965Z,15.00
2022-12-11T07:11:27.542Z,18.00
2022-12-11T07:13:58.558Z,9.50
2022-12-11T07:16:26.599Z,11.50
2022-12-11T07:18:54.282Z,7.00
2022-12-11T07:21:22.316Z,11.50
2022-12-11T07:23:51.942Z,14.40
2022-12-11T07:26:22.631Z,17.40
2022-12-11T07:28:51.161Z,11.00
2022-12-11T07:31:26.073Z,12.00
2022-12-11T07:33:57.719Z,15.00
2022-12-11T07:36:27.268Z,35.00
2022-12-11T07:38:56.762Z,15.00
2022-12-11T07:41:25.176Z,21.50
2022-12-11T07:43:55.979Z,35.67
2022-12-11T07:46:27.951Z,23.00
2022-12-11T07:48:55.751Z,20.00
2022-12-11T07:51:35.687Z,11.50
2022-12-11T07:54:17.100Z,7.00
2022-12-11T07:56:53.278Z,16.00
2022-12-11T07:59:23.407Z,17.00
2022-12-11T08:01:52.997Z,38.33
2022-12-11T08:04:21.582Z,18.00
2022-12-11T08:06:49.268Z,18.50
2022-12-11T08:09:21.163Z,11.50
2022-12-11T08:11:51.309Z,10.00
2022-12-11T08:14:21.441Z,11.00
2022-12-11T08:16:52.773Z,16.86
2022-12-11T08:19:20.579Z,30.00
2022-12-11T08:21:48.350Z,38.50
2022-12-11T08:24:20.314Z,34.00
2022-12-11T08:26:49.217Z,26.00
2022-12-11T08:29:17.803Z,22.33
2022-12-11T08:31:45.606Z,23.00
2022-12-11T08:34:14.294Z,20.50
2022-12-11T08:36:44.003Z,15.50
2022-12-11T08:39:11.724Z,22.00
2022-12-11T08:41:39.629Z,15.50
2022-12-11T08:44:16.554Z,22.00
2022-12-11T08:46:47.101Z,38.50
2022-12-11T08:49:14.851Z,22.00
2022-12-11T08:51:42.636Z,26.00
2022-12-11T08:54:11.830Z,21.00
2022-12-11T08:56:40.503Z,18.00
2022-12-11T08:59:08.368Z,25.00
2022-12-11T09:01:36.973Z,23.67
2022-12-11T09:04:05.603Z,20.00
2022-12-11T09:06:34.281Z,19.50
2022-12-11T09:09:05.036Z,17.33
2022-12-11T09:11:37.828Z,21.67
2022-12-11T09:14:08.085Z,23.50
2022-12-11T09:16:43.230Z,20.33
2022-12-11T09:19:15.377Z,29.00
2022-12-11T09:21:45.172Z,15.00
2022-12-11T09:24:15.088Z,24.67
2022-12-11T09:26:43.441Z,18.00
2022-12-11T09:29:13.152Z,21.67
2022-12-11T09:31:41.236Z,19.00
2022-12-11T09:34:14.233Z,20.40
2022-12-11T09:36:44.797Z,11.17
2022-12-11T09:39:16.140Z,22.00
2022-12-11T09:42:06.531Z,22.00
2022-12-11T09:44:54.859Z,22.50
2022-12-11T09:47:41.221Z,33.00
2022-12-11T09:50:33.621Z,19.33
2022-12-11T09:53:17.583Z,32.00
2022-12-11T09:56:40.169Z,30.50
2022-12-11T09:59:47.343Z,17.00
2022-12-11T10:02:45.544Z,26.50
2022-12-11T10:06:04.474Z,21.67
2022-12-11T10:09:20.199Z,17.33
2022-12-11T10:12:43.119Z,22.00
2022-12-11T10:15:40.575Z,13.00
2022-12-11T10:18:22.473Z,20.33
2022-12-11T10:20:53.444Z,27.00
2022-12-11T10:23:40.794Z,29.00
2022-12-11T10:26:22.911Z,21.00
2022-12-11T10:28:52.173Z,26.33
2022-12-11T10:31:43.660Z,23.33
2022-12-11T10:34:36.596Z,20.00
2022-12-11T10:37:05.420Z,15.67
2022-12-11T10:39:33.199Z,14.50
2022-12-11T10:42:19.602Z,16.00
2022-12-11T10:45:02.285Z,17.50
2022-12-11T10:47:32.196Z,20.00
2022-12-11T10:50:04.580Z,15.67
2022-12-11T10:52:44.850Z,16.50
2022-12-11T10:55:53.341Z,19.00
2022-12-11T10:58:33.923Z,19.50
2022-12-11T11:01:19.535Z,30.50
2022-12-11T11:04:16.491Z,26.50
2022-12-11T11:06:44.156Z,23.00
2022-12-11T11:09:35.539Z,24.67
2022-12-11T11:12:08.027Z,23.67
2022-12-11T11:14:37.645Z,15.00
2022-12-11T11:17:16.841Z,20.33
2022-12-11T11:19:49.156Z,22.50
2022-12-11T11:22:20.364Z,13.00
2022-12-11T11:24:58.712Z,18.00
2022-12-11T11:27:44.296Z,32.00
2022-12-11T11:30:39.979Z,21.33
2022-12-11T11:33:21.717Z,12.14
2022-12-11T11:36:05.375Z,19.00
2022-12-11T11:38:43.153Z,20.50
2022-12-11T11:41:24.518Z,29.00
2022-12-11T11:44:00.998Z,28.00
2022-12-11T11:46:58.623Z,28.00
2022-12-11T11:50:18.045Z,16.67
2022-12-11T11:53:04.179Z,14.00
2022-12-11T11:56:18.461Z,15.00
2022-12-11T11:59:03.400Z,16.00
2022-12-11T12:01:32.223Z,17.00
2022-12-11T12:04:04.502Z,25.50
2022-12-11T12:07:41.484Z,19.00
2022-12-11T12:14:50.494Z,9.50
2022-12-11T12:17:56.170Z,16.50
2022-12-11T12:21:05.368Z,18.33
2022-12-11T12:23:48.891Z,22.33
2022-12-11T12:26:36.962Z,13.67
2022-12-11T12:30:06.456Z,18.00
2022-12-11T12:33:20.163Z,17.00
2022-12-11T12:36:28.026Z,40.00
2022-12-11T12:39:56.736Z,36.00
2022-12-11T12:42:41.972Z,51.50
2022-12-11T12:45:42.649Z,34.00
2022-12-11T12:48:12.467Z,31.50
2022-12-11T12:50:49.599Z,22.00
2022-12-11T12:53:32.587Z,42.67
2022-12-11T12:56:05.534Z,57.00
2022-12-11T12:58:45.185Z,45.50
2022-12-11T13:01:24.650Z,76.33
2022-12-11T13:04:05.862Z,36.00
2022-12-11T13:06:43.665Z,33.50
2022-12-11T13:09:27.031Z,44.50
2022-12-11T13:11:58.267Z,27.50
2022-12-11T13:14:32.644Z,23.00
2022-12-11T13:17:27.261Z,31.00
2022-12-11T13:20:20.556Z,22.00
2022-12-11T13:23:17.028Z,17.00
2022-12-11T13:26:01.920Z,20.50
2022-12-11T13:28:38.352Z,23.83
2022-12-11T13:31:35.023Z,26.00
2022-12-11T13:34:33.435Z,29.50
2022-12-11T13:37:04.015Z,30.00
2022-12-11T13:39:37.351Z,25.50
2022-12-11T13:42:37.552Z,36.00
2022-12-11T13:45:06.503Z,25.50
2022-12-11T13:47:37.185Z,18.67
2022-12-11T13:50:32.644Z,24.00
2022-12-11T13:53:03.655Z,26.50
2022-12-11T13:55:35.360Z,27.00
2022-12-11T13:58:04.064Z,38.50
2022-12-11T14:00:33.531Z,26.50
2022-12-11T14:03:09.469Z,49.67
2022-12-11T14:05:38.190Z,32.00
2022-12-11T14:08:10.619Z,47.00
2022-12-11T14:10:40.885Z,58.50
2022-12-11T14:13:35.749Z,54.00
2022-12-11T14:16:07.254Z,74.33
2022-12-11T14:18:37.790Z,63.00
2022-12-11T14:21:07.475Z,55.00
2022-12-11T14:23:37.660Z,58.00
2022-12-11T14:26:29.152Z,51.00
2022-12-11T14:28:58.697Z,49.00
2022-12-11T14:31:44.017Z,42.00
2022-12-11T14:34:26.868Z,33.50
2022-12-11T14:36:58.191Z,57.67
2022-12-11T14:40:00.564Z,42.50
2022-12-11T14:42:35.760Z,29.50
2022-12-11T14:45:22.939Z,28.00
2022-12-11T14:47:54.784Z,21.00
2022-12-11T14:50:37.557Z,18.00
2022-12-11T14:53:15.534Z,34.50
2022-12-11T14:55:45.116Z,26.33
2022-12-11T14:58:25.048Z,27.50
2022-12-11T15:01:07.668Z,36.00
2022-12-11T15:03:42.650Z,36.00
2022-12-11T15:06:49.142Z,32.00
2022-12-11T15:09:36.329Z,41.00
2022-12-11T15:12:20.298Z,55.00
2022-12-11T15:15:06.739Z,66.50
2022-12-11T15:17:37.650Z,68.50
2022-12-11T15:20:28.716Z,65.33
2022-12-11T15:23:02.065Z,68.00
2022-12-11T15:25:31.717Z,71.33
2022-12-11T15:28:02.238Z,74.67
2022-12-11T15:30:36.029Z,82.33
2022-12-11T15:33:11.473Z,86.00
2022-12-11T15:36:00.177Z,91.33
2022-12-11T15:38:40.670Z,72.00
2022-12-11T15:41:18.591Z,56.50
2022-12-11T15:43:48.058Z,69.00
2022-12-11T15:46:18.052Z,64.50
2022-12-11T15:48:49.460Z,59.00
2022-12-11T15:51:18.424Z,55.50
2022-12-11T15:53:49.984Z,54.50
2022-12-11T15:56:19.205Z,47.50
2022-12-11T15:58:49.771Z,56.00
2022-12-11T16:01:19.252Z,51.33
2022-12-11T16:03:50.474Z,53.00
2022-12-11T16:06:19.110Z,58.00
2022-12-11T16:08:48.562Z,70.67
2022-12-11T16:11:16.391Z,54.50
2022-12-11T16:13:45.921Z,69.00
2022-12-11T16:16:14.692Z,51.00
2022-12-11T16:18:44.190Z,54.00
2022-12-11T16:21:16.846Z,61.00
2022-12-11T16:23:50.133Z,60.00
2022-12-11T16:26:19.636Z,70.00
2022-12-11T16:28:49.052Z,58.00
2022-12-11T16:31:18.586Z,78.33
2022-12-11T16:33:48.096Z,71.33
2022-12-11T16:36:20.962Z,42.67
2022-12-11T16:38:53.773Z,59.33
2022-12-11T16:41:24.980Z,40.67
2022-12-11T16:43:55.292Z,46.00
2022-12-11T16:46:25.656Z,46.33
2022-12-11T16:48:54.500Z,45.50
2022-12-11T16:51:24.593Z,41.00
2022-12-11T16:53:53.256Z,36.00
2022-12-11T16:56:21.973Z,38.50
2022-12-11T16:58:50.699Z,45.00
2022-12-11T17:01:20.256Z,37.33
2022-12-11T17:03:49.727Z,44.33
2022-12-11T17:06:19.061Z,47.00
2022-12-11T17:08:48.637Z,46.00
2022-12-11T17:11:22.003Z,54.67
2022-12-11T17:14:00.987Z,37.50
2022-12-11T17:16:30.599Z,53.00
2022-12-11T17:19:00.295Z,44.00
2022-12-11T17:21:29.814Z,43.33
2022-12-11T17:24:00.768Z,50.33
2022-12-11T17:26:30.498Z,41.33
2022-12-11T17:28:59.978Z,46.00
2022-12-11T17:31:29.869Z,44.00
2022-12-11T17:34:04.589Z,34.00
2022-12-11T17:36:33.711Z,36.50
2022-12-11T17:39:03.240Z,50.67
2022-12-11T17:41:31.885Z,35.00
2022-12-11T17:44:00.525Z,32.00
2022-12-11T17:46:29.600Z,39.00
2022-12-11T17:49:00.278Z,38.50
2022-12-11T17:51:28.101Z,30.50
2022-12-11T17:53:57.816Z,43.33
2022-12-11T17:56:27.218Z,38.00
2022-12-11T17:58:56.727Z,46.50
2022-12-11T18:01:25.534Z,40.50
2022-12-11T18:03:54.361Z,38.00
2022-12-11T18:06:23.516Z,27.00
2022-12-11T18:08:51.275Z,34.50
2022-12-11T18:11:21.920Z,46.00
2022-12-11T18:13:53.012Z,37.50
2022-12-11T18:16:30.825Z,37.50
2022-12-11T18:18:59.649Z,40.50
2022-12-11T18:21:33.097Z,44.00
2022-12-11T18:24:03.127Z,37.00
2022-12-11T18:26:32.583Z,47.67
2022-12-11T18:29:02.036Z,51.33
2022-12-11T18:31:32.139Z,49.67
2022-12-11T18:34:01.170Z,42.50
2022-12-11T18:36:30.696Z,46.67
2022-12-11T18:39:01.124Z,35.50
2022-12-11T18:41:28.849Z,35.00
2022-12-11T18:43:56.682Z,34.00
2022-12-11T18:46:25.411Z,28.50
2022-12-11T18:48:53.526Z,32.00
2022-12-11T18:51:24.587Z,36.50
2022-12-11T18:53:54.751Z,24.67
2022-12-11T18:56:24.574Z,32.67
2022-12-11T18:58:53.924Z,36.00
2022-12-11T19:01:30.347Z,45.50
2022-12-11T19:04:05.531Z,38.00
2022-12-11T19:06:36.578Z,39.50
2022-12-11T19:09:10.870Z,38.50
2022-12-11T19:11:42.415Z,45.67
2022-12-11T19:14:12.170Z,33.50
2022-12-11T19:16:49.959Z,35.50
2022-12-11T19:19:22.166Z,51.67
2022-12-11T19:21:51.353Z,39.00
2022-12-11T19:24:23.425Z,35.50
2022-12-11T19:26:52.984Z,34.50
2022-12-11T19:29:28.253Z,40.00
2022-12-11T19:31:59.000Z,38.00
2022-12-11T19:34:27.876Z,38.00
2022-12-11T19:36:57.172Z,32.00
2022-12-11T19:39:25.975Z,33.00
2022-12-11T19:41:54.675Z,28.50
2022-12-11T19:44:23.843Z,39.50
2022-12-11T19:46:53.403Z,42.00
2022-12-11T19:49:22.209Z,34.50
2022-12-11T19:51:51.527Z,33.00
2022-12-11T19:54:19.408Z,33.00
2022-12-11T19:56:48.242Z,37.50
2022-12-11T19:59:18.019Z,29.50
2022-12-11T20:01:50.412Z,36.50
2022-12-11T20:04:20.106Z,37.00
2022-12-11T20:06:49.295Z,11.67
2022-12-11T20:09:18.199Z,28.50
2022-12-11T20:11:47.972Z,27.00
2022-12-11T20:14:31.111Z,28.00
2022-12-11T20:17:14.287Z,26.33
2022-12-11T20:19:43.268Z,25.50
2022-12-11T20:22:12.128Z,37.00
2022-12-11T20:24:39.931Z,26.00
2022-12-11T20:27:09.659Z,34.00
2022-12-11T20:29:39.017Z,37.00
2022-12-11T20:32:07.895Z,26.00
2022-12-11T20:34:35.768Z,37.50
2022-12-11T20:37:05.206Z,43.67
2022-12-11T20:39:33.703Z,26.00
2022-12-11T20:42:05.060Z,34.00
2022-12-11T20:44:33.743Z,30.00
2022-12-11T20:47:02.496Z,35.67
2022-12-11T20:49:31.241Z,38.50
2022-12-11T20:52:00.556Z,46.50
2022-12-11T20:54:29.218Z,38.00
2022-12-11T20:56:57.157Z,29.00
2022-12-11T20:59:26.404Z,26.00
2022-12-11T21:01:54.476Z,36.50
2022-12-11T21:05:00.878Z,39.00
2022-12-11T21:07:28.670Z,28.00
2022-12-11T21:09:56.416Z,36.00
2022-12-11T21:12:29.798Z,39.50
2022-12-11T21:15:00.228Z,41.00
2022-12-11T21:17:28.824Z,27.50
2022-12-11T21:19:56.536Z,39.50
2022-12-11T21:22:25.155Z,35.00
2022-12-11T21:24:53.748Z,29.67
2022-12-11T21:27:24.665Z,40.00
2022-12-11T21:29:52.580Z,35.00
2022-12-11T21:32:21.256Z,34.00
2022-12-11T21:34:51.781Z,33.50
2022-12-11T21:37:20.379Z,30.00
2022-12-11T21:40:17.712Z,35.50
2022-12-11T21:42:46.497Z,38.50
2022-12-11T21:48:03.466Z,24.33
2022-12-11T21:50:31.850Z,42.00
2022-12-11T21:52:59.583Z,35.50
2022-12-11T21:55:29.178Z,34.33
2022-12-11T21:57:57.028Z,28.00
2022-12-11T22:00:25.843Z,36.00
2022-12-11T22:02:54.507Z,44.50
2022-12-11T22:05:22.542Z,39.00
2022-12-11T22:07:51.309Z,38.00
2022-12-11T22:10:19.276Z,42.00
2022-12-11T22:12:47.809Z,41.33
2022-12-11T22:15:17.240Z,39.33
2022-12-11T22:17:45.932Z,43.00
2022-12-11T22:20:16.645Z,43.00
2022-12-11T22:22:44.414Z,29.00
2022-12-11T22:25:12.622Z,35.50
2022-12-11T22:27:41.403Z,40.50
2022-12-11T22:30:11.919Z,41.00
2022-12-11T22:32:41.703Z,36.50
2022-12-11T22:35:11.295Z,39.00
2022-12-11T22:37:39.246Z,30.00
2022-12-11T22:40:09.453Z,38.00
2022-12-11T22:42:37.733Z,44.00
2022-12-11T22:45:07.302Z,33.00
2022-12-11T22:47:35.955Z,29.50
2022-12-11T22:50:06.591Z,44.00
2022-12-11T22:52:35.610Z,42.00
2022-12-11T22:55:07.443Z,25.50
2022-12-11T22:57:39.226Z,34.00
2022-12-11T23:00:14.018Z,31.00
2022-12-11T23:02:43.017Z,42.50
2022-12-11T23:05:12.810Z,40.50
2022-12-11T23:07:40.885Z,32.50
2022-12-11T23:10:10.556Z,37.00
2022-12-11T23:12:38.416Z,37.00
2022-12-11T23:15:07.869Z,41.50
2022-12-11T23:17:36.153Z,31.00
2022-12-11T23:20:07.053Z,42.50
2022-12-11T23:22:34.844Z,34.50
2022-12-11T23:25:03.850Z,38.50
2022-12-11T23:27:31.624Z,41.00
2022-12-11T23:30:00.275Z,44.00
2022-12-11T23:32:28.183Z,38.50
2022-12-11T23:34:56.866Z,38.00
2022-12-11T23:37:24.701Z,37.50
2022-12-11T23:39:53.433Z,32.50
2022-12-11T23:42:21.146Z,40.50
2022-12-11T23:44:48.894Z,32.50
2022-12-11T23:47:17.605Z,41.50
2022-12-11T23:49:46.284Z,34.00
2022-12-11T23:52:14.043Z,47.00
2022-12-11T23:54:41.755Z,44.50
2022-12-11T23:57:10.439Z,36.50
2022-12-11T23:59:39.959Z,55.00
